Time;durP1;ratioP1;P1;durP2;ratioP2;P2;SDS_P1;SDS_P2;PMS_P1;PMS_P2;Temp;Humidity;BMP_temperature;BMP_pressure;BME280_temperature;BME280_humidity;BME280_pressure;Samples;Min_cycle;Max_cycle;Signal;HPM_P1;HPM_P2
2022/08/16 00:00:04;;;;;;;5.13;4.63;;;;;;;;;;5032312;28;20522;-75
2022/08/16 00:02:30;;;;;;;7.67;4.90;;;;;;;;;;5032647;28;20405;-75
2022/08/16 00:04:56;;;;;;;6.27;5.10;;;;;;;;;;5032585;28;20487;-75
2022/08/16 00:07:22;;;;;;;5.97;5.37;;;;;;;;;;5032754;28;20491;-75
2022/08/16 00:09:48;;;;;;;8.03;5.37;;;;;;;;;;5014595;28;20914;-75
2022/08/16 00:12:14;;;;;;;7.87;5.50;;;;;;;;;;5032638;28;20475;-75
2022/08/16 00:14:40;;;;;;;5.70;5.17;;;;;;;;;;5032497;28;20431;-75
2022/08/16 00:17:06;;;;;;;6.17;5.20;;;;;;;;;;5032462;28;20421;-75
2022/08/16 00:19:33;;;;;;;4.93;4.43;;;;;;;;;;5032187;28;20759;-76
2022/08/16 00:21:59;;;;;;;5.83;5.33;;;;;;;;;;5032227;28;20411;-76
2022/08/16 00:24:26;;;;;;;6.30;5.60;;;;;;;;;;5032576;28;20449;-76
2022/08/16 00:26:52;;;;;;;5.73;5.00;;;;;;;;;;5034942;28;20470;-75
2022/08/16 00:29:18;;;;;;;6.10;5.50;;;;;;;;;;5036255;28;20421;-75
2022/08/16 00:31:45;;;;;;;6.77;5.23;;;;;;;;;;5035845;28;20425;-75
2022/08/16 00:34:11;;;;;;;5.80;5.30;;;;;;;;;;5036065;28;20498;-75
2022/08/16 00:36:37;;;;;;;5.90;5.40;;;;;;;;;;5036046;28;20417;-76
2022/08/16 00:39:04;;;;;;;6.10;5.50;;;;;;;;;;5018277;28;20421;-76
2022/08/16 00:41:30;;;;;;;6.20;5.60;;;;;;;;;;5035702;28;20472;-76
2022/08/16 00:43:56;;;;;;;7.40;5.10;;;;;;;;;;5036274;28;20421;-75
2022/08/16 00:46:31;;;;;;;6.03;5.07;;;;;;;;;;5035955;28;20962;-75
2022/08/16 00:48:57;;;;;;;5.57;4.97;;;;;;;;;;5035787;28;20388;-76
2022/08/16 00:51:23;;;;;;;5.13;4.73;;;;;;;;;;5035082;28;20449;-75
2022/08/16 00:53:50;;;;;;;7.60;5.20;;;;;;;;;;5035697;28;20473;-76
2022/08/16 00:56:18;;;;;;;5.70;5.20;;;;;;;;;;5035619;28;20471;-76
2022/08/16 00:58:45;;;;;;;5.83;5.17;;;;;;;;;;5035665;28;20406;-76
2022/08/16 01:01:12;;;;;;;5.20;4.50;;;;;;;;;;5035176;28;20423;-76
2022/08/16 01:03:39;;;;;;;5.47;4.97;;;;;;;;;;5035516;28;20420;-76
2022/08/16 01:06:06;;;;;;;9.17;5.07;;;;;;;;;;5035620;28;20421;-76
2022/08/16 01:08:34;;;;;;;7.23;5.43;;;;;;;;;;5017877;28;20441;-76
2022/08/16 01:11:00;;;;;;;6.27;5.67;;;;;;;;;;5035027;28;20789;-76
2022/08/16 01:13:27;;;;;;;5.70;5.10;;;;;;;;;;5035243;28;20398;-75
2022/08/16 01:15:56;;;;;;;5.80;5.20;;;;;;;;;;5035320;28;20412;-75
2022/08/16 01:18:24;;;;;;;6.67;6.00;;;;;;;;;;5035329;28;20522;-76
2022/08/16 01:21:04;;;;;;;5.70;5.20;;;;;;;;;;5034824;28;20574;-76
2022/08/16 01:23:41;;;;;;;5.60;4.60;;;;;;;;;;5035133;28;20423;-76
2022/08/16 01:26:07;;;;;;;5.50;5.00;;;;;;;;;;5017745;28;20438;-76
2022/08/16 01:28:33;;;;;;;5.80;5.30;;;;;;;;;;5017795;28;20397;-76
2022/08/16 01:30:59;;;;;;;5.93;4.73;;;;;;;;;;5034695;28;20417;-75
2022/08/16 01:33:25;;;;;;;5.73;5.23;;;;;;;;;;5017083;28;20991;-76
2022/08/16 01:36:06;;;;;;;6.07;5.10;;;;;;;;;;5034883;28;20381;-75
2022/08/16 01:38:33;;;;;;;5.67;5.07;;;;;;;;;;5016411;28;20408;-76
2022/08/16 01:41:01;;;;;;;6.67;5.20;;;;;;;;;;5034628;28;20423;-75
2022/08/16 01:43:27;;;;;;;5.97;5.37;;;;;;;;;;5034808;28;20820;-77
2022/08/16 01:45:57;;;;;;;4.90;4.40;;;;;;;;;;5034606;28;20995;-76
2022/08/16 01:48:27;;;;;;;6.27;4.77;;;;;;;;;;5017189;28;20435;-76
2022/08/16 01:50:54;;;;;;;6.70;4.90;;;;;;;;;;5034255;28;20442;-76
2022/08/16 01:53:20;;;;;;;4.73;4.17;;;;;;;;;;5034718;28;20424;-76
2022/08/16 01:55:46;;;;;;;7.33;5.30;;;;;;;;;;5034424;28;20406;-76
2022/08/16 01:58:14;;;;;;;5.57;5.13;;;;;;;;;;5017006;28;20767;-75
2022/08/16 02:00:40;;;;;;;5.63;4.40;;;;;;;;;;5034159;28;20490;-75
2022/08/16 02:03:07;;;;;;;4.90;4.40;;;;;;;;;;5034461;28;20717;-77
2022/08/16 02:05:33;;;;;;;5.20;4.70;;;;;;;;;;5034189;28;20458;-75
2022/08/16 02:07:59;;;;;;;10.90;4.93;;;;;;;;;;5034338;28;20413;-76
2022/08/16 02:10:25;;;;;;;7.57;4.70;;;;;;;;;;5034055;28;20545;-76
2022/08/16 02:12:52;;;;;;;6.43;5.80;;;;;;;;;;5034220;28;20415;-75
2022/08/16 02:15:19;;;;;;;7.30;5.13;;;;;;;;;;5016737;28;20387;-75
2022/08/16 02:17:45;;;;;;;11.43;5.70;;;;;;;;;;5034054;28;20419;-76
2022/08/16 02:20:11;;;;;;;4.83;4.43;;;;;;;;;;5033667;28;20997;-76
2022/08/16 02:22:37;;;;;;;5.57;5.00;;;;;;;;;;5016634;28;20409;-75
2022/08/16 02:25:07;;;;;;;5.20;4.80;;;;;;;;;;5033926;28;20447;-75
2022/08/16 02:27:33;;;;;;;5.90;5.40;;;;;;;;;;5033939;28;20408;-76
2022/08/16 02:29:59;;;;;;;5.70;5.10;;;;;;;;;;5033454;28;20405;-76
2022/08/16 02:32:25;;;;;;;9.10;6.10;;;;;;;;;;5033965;28;20422;-76
2022/08/16 02:34:51;;;;;;;6.97;5.10;;;;;;;;;;5034105;28;20759;-75
2022/08/16 02:37:17;;;;;;;5.40;4.30;;;;;;;;;;5034013;28;20431;-75
2022/08/16 02:39:43;;;;;;;5.43;4.93;;;;;;;;;;5033460;28;20455;-76
2022/08/16 02:42:09;;;;;;;5.90;4.60;;;;;;;;;;5033747;28;20416;-76
2022/08/16 02:44:35;;;;;;;5.50;5.00;;;;;;;;;;5033451;28;20458;-75
2022/08/16 02:47:02;;;;;;;8.00;5.07;;;;;;;;;;5033614;28;20393;-76
2022/08/16 02:49:28;;;;;;;5.20;4.70;;;;;;;;;;5033261;28;20940;-76
2022/08/16 02:51:54;;;;;;;5.47;4.73;;;;;;;;;;5015362;28;20867;-76
2022/08/16 02:54:20;;;;;;;6.80;4.83;;;;;;;;;;5033492;28;20431;-76
2022/08/16 02:56:48;;;;;;;5.30;4.80;;;;;;;;;;5033432;28;20992;-75
2022/08/16 02:59:14;;;;;;;4.93;4.20;;;;;;;;;;5033440;28;20387;-76
2022/08/16 03:01:40;;;;;;;7.07;5.13;;;;;;;;;;5033262;28;20443;-76
2022/08/16 03:04:07;;;;;;;5.50;4.30;;;;;;;;;;5033145;28;20456;-76
2022/08/16 03:06:34;;;;;;;4.87;4.33;;;;;;;;;;5033593;28;20406;-76
2022/08/16 03:09:00;;;;;;;4.80;4.40;;;;;;;;;;5033637;28;20806;-75
2022/08/16 03:11:27;;;;;;;5.40;5.00;;;;;;;;;;5032942;28;20430;-76
2022/08/16 03:13:54;;;;;;;5.20;4.80;;;;;;;;;;5033083;28;20765;-77
2022/08/16 03:16:21;;;;;;;4.60;4.20;;;;;;;;;;5032989;28;20494;-76
2022/08/16 03:18:47;;;;;;;4.67;4.27;;;;;;;;;;5033205;28;20431;-76
2022/08/16 03:21:14;;;;;;;5.60;5.07;;;;;;;;;;5032719;28;20472;-76
2022/08/16 03:23:40;;;;;;;5.37;4.90;;;;;;;;;;5033150;28;20451;-75
2022/08/16 03:26:06;;;;;;;5.80;5.30;;;;;;;;;;5032913;28;20452;-76
2022/08/16 03:28:32;;;;;;;7.50;5.83;;;;;;;;;;5033094;28;20387;-75
2022/08/16 03:30:59;;;;;;;5.37;4.87;;;;;;;;;;5032809;28;20428;-75
2022/08/16 03:33:25;;;;;;;5.10;4.60;;;;;;;;;;5015289;28;20412;-76
2022/08/16 03:35:51;;;;;;;6.73;5.37;;;;;;;;;;5033198;28;20395;-76
2022/08/16 03:38:18;;;;;;;5.47;5.00;;;;;;;;;;5033152;28;20393;-76
2022/08/16 03:40:44;;;;;;;5.43;4.77;;;;;;;;;;5032669;28;20439;-75
2022/08/16 03:43:11;;;;;;;5.97;5.27;;;;;;;;;;5033011;28;20412;-76
2022/08/16 03:45:38;;;;;;;5.80;4.50;;;;;;;;;;5033054;28;20789;-75
2022/08/16 03:48:05;;;;;;;5.90;5.30;;;;;;;;;;5033316;28;20379;-75
2022/08/16 03:50:31;;;;;;;6.20;5.40;;;;;;;;;;5032311;28;20501;-76
2022/08/16 03:52:58;;;;;;;5.67;5.10;;;;;;;;;;5033248;28;20424;-75
2022/08/16 03:55:24;;;;;;;6.80;5.40;;;;;;;;;;5033138;28;20413;-76
2022/08/16 03:57:52;;;;;;;5.40;4.90;;;;;;;;;;5032875;28;20400;-76
2022/08/16 04:00:21;;;;;;;6.33;4.73;;;;;;;;;;5014844;28;21000;-75
2022/08/16 04:02:47;;;;;;;5.50;4.70;;;;;;;;;;5036579;28;20419;-76
2022/08/16 04:05:15;;;;;;;6.17;5.30;;;;;;;;;;5036601;28;20539;-76
2022/08/16 04:07:41;;;;;;;6.50;4.80;;;;;;;;;;5036730;28;20385;-76
2022/08/16 04:10:08;;;;;;;4.97;4.57;;;;;;;;;;5036083;28;20506;-76
2022/08/16 04:12:35;;;;;;;5.03;4.53;;;;;;;;;;5036375;28;20422;-76
2022/08/16 04:15:02;;;;;;;4.63;4.23;;;;;;;;;;5036386;28;20416;-75
2022/08/16 04:17:28;;;;;;;6.93;5.23;;;;;;;;;;5036523;28;20469;-76
2022/08/16 04:19:54;;;;;;;6.50;5.17;;;;;;;;;;5036045;28;20411;-75
2022/08/16 04:22:21;;;;;;;7.33;5.20;;;;;;;;;;5036299;28;20436;-75
2022/08/16 04:24:47;;;;;;;6.77;5.30;;;;;;;;;;5036355;28;20454;-75
2022/08/16 04:27:13;;;;;;;6.17;5.33;;;;;;;;;;5036153;28;20385;-75
2022/08/16 04:29:39;;;;;;;6.17;4.43;;;;;;;;;;5035916;28;20415;-75
2022/08/16 04:32:05;;;;;;;5.77;5.27;;;;;;;;;;5018241;28;20444;-75
2022/08/16 04:34:32;;;;;;;5.70;5.20;;;;;;;;;;5036134;28;20436;-76
2022/08/16 04:36:59;;;;;;;7.40;5.07;;;;;;;;;;5035953;28;20393;-76
2022/08/16 04:39:26;;;;;;;5.80;5.20;;;;;;;;;;5036197;28;20441;-75
2022/08/16 04:41:52;;;;;;;6.47;5.77;;;;;;;;;;5035834;28;20416;-75
2022/08/16 04:44:18;;;;;;;6.00;5.40;;;;;;;;;;5035991;28;20432;-75
2022/08/16 04:46:45;;;;;;;6.10;5.60;;;;;;;;;;5035850;28;20439;-76
2022/08/16 04:49:11;;;;;;;5.93;5.20;;;;;;;;;;5035778;28;21003;-76
2022/08/16 04:51:40;;;;;;;7.60;6.20;;;;;;;;;;5035347;28;20444;-75
2022/08/16 04:54:06;;;;;;;6.53;5.93;;;;;;;;;;5035410;28;20425;-75
2022/08/16 04:56:33;;;;;;;6.53;5.93;;;;;;;;;;5035231;28;21079;-75
2022/08/16 04:58:59;;;;;;;6.10;5.50;;;;;;;;;;5035295;28;20418;-75
2022/08/16 05:01:25;;;;;;;5.23;4.73;;;;;;;;;;5034595;28;20479;-75
2022/08/16 05:03:52;;;;;;;7.90;5.30;;;;;;;;;;5035137;28;20417;-75
2022/08/16 05:06:18;;;;;;;5.13;4.73;;;;;;;;;;5035224;28;20457;-76
2022/08/16 05:08:43;;;;;;;5.97;5.23;;;;;;;;;;5035080;28;20451;-75
2022/08/16 05:11:10;;;;;;;6.00;5.40;;;;;;;;;;5034502;28;20534;-75
2022/08/16 05:13:39;;;;;;;11.10;5.40;;;;;;;;;;5017224;28;20845;-75
2022/08/16 05:16:08;;;;;;;5.50;5.00;;;;;;;;;;5035003;28;20424;-75
2022/08/16 05:18:35;;;;;;;7.40;5.10;;;;;;;;;;5034763;28;20467;-75
2022/08/16 05:21:01;;;;;;;6.53;4.80;;;;;;;;;;5034209;28;20591;-75
2022/08/16 05:23:27;;;;;;;6.90;5.13;;;;;;;;;;5034610;28;20468;-75
2022/08/16 05:25:53;;;;;;;6.37;5.50;;;;;;;;;;5034804;28;20471;-75
2022/08/16 05:28:19;;;;;;;6.10;5.60;;;;;;;;;;5034671;28;20416;-74
2022/08/16 05:30:45;;;;;;;5.77;4.70;;;;;;;;;;5034426;28;20872;-75
2022/08/16 05:33:11;;;;;;;5.43;4.93;;;;;;;;;;5034661;28;20417;-75
2022/08/16 05:35:37;;;;;;;5.93;5.33;;;;;;;;;;5034895;28;20447;-75
2022/08/16 05:38:04;;;;;;;5.90;5.40;;;;;;;;;;5034728;28;20467;-75
2022/08/16 05:40:30;;;;;;;6.37;4.87;;;;;;;;;;5034390;28;20539;-75
2022/08/16 05:42:56;;;;;;;6.13;5.47;;;;;;;;;;5017021;28;20928;-75
2022/08/16 05:45:22;;;;;;;5.33;4.93;;;;;;;;;;5034231;28;20421;-75
2022/08/16 05:47:48;;;;;;;6.33;5.30;;;;;;;;;;5034491;28;20821;-75
2022/08/16 05:50:14;;;;;;;6.27;5.10;;;;;;;;;;5033794;28;20422;-75
2022/08/16 05:52:40;;;;;;;5.23;4.73;;;;;;;;;;5034091;28;20419;-75
2022/08/16 05:55:06;;;;;;;6.10;4.70;;;;;;;;;;5034488;28;20491;-75
2022/08/16 05:57:32;;;;;;;5.43;4.60;;;;;;;;;;5034085;28;20770;-75
2022/08/16 05:59:59;;;;;;;6.10;4.50;;;;;;;;;;5033954;28;20408;-75
2022/08/16 06:02:26;;;;;;;6.70;5.63;;;;;;;;;;5034065;28;20491;-75
2022/08/16 06:04:52;;;;;;;5.20;4.80;;;;;;;;;;5034063;28;20957;-75
2022/08/16 06:07:18;;;;;;;5.93;4.60;;;;;;;;;;5034003;28;20524;-76
2022/08/16 06:09:44;;;;;;;5.07;4.67;;;;;;;;;;5033601;28;20434;-75
2022/08/16 06:12:11;;;;;;;12.73;5.67;;;;;;;;;;5016018;28;20934;-76
2022/08/16 06:14:37;;;;;;;6.53;5.40;;;;;;;;;;5033947;28;20413;-75
2022/08/16 06:17:03;;;;;;;6.97;5.23;;;;;;;;;;5033867;28;20413;-75
2022/08/16 06:19:29;;;;;;;5.17;4.77;;;;;;;;;;5033629;28;20392;-75
2022/08/16 06:21:55;;;;;;;5.83;4.80;;;;;;;;;;5033615;28;20445;-75
2022/08/16 06:24:21;;;;;;;5.80;5.17;;;;;;;;;;5032889;28;20865;-75
2022/08/16 06:26:47;;;;;;;7.90;4.77;;;;;;;;;;5016036;28;20412;-75
2022/08/16 06:29:13;;;;;;;5.13;4.73;;;;;;;;;;5033568;28;20808;-75
2022/08/16 06:31:40;;;;;;;5.17;4.70;;;;;;;;;;5015448;28;20520;-75
2022/08/16 06:34:06;;;;;;;6.20;4.80;;;;;;;;;;5033383;28;20908;-75
2022/08/16 06:36:32;;;;;;;5.07;4.33;;;;;;;;;;5033309;28;20472;-75
2022/08/16 06:38:58;;;;;;;5.50;4.50;;;;;;;;;;5033288;28;20509;-75
2022/08/16 06:41:25;;;;;;;6.57;4.60;;;;;;;;;;5015073;28;20426;-75
2022/08/16 06:43:51;;;;;;;7.73;4.60;;;;;;;;;;5033002;28;20695;-75
2022/08/16 06:46:22;;;;;;;5.60;4.67;;;;;;;;;;5033012;28;20522;-76
2022/08/16 06:48:47;;;;;;;5.83;4.50;;;;;;;;;;5033388;28;20546;-75
2022/08/16 06:51:13;;;;;;;4.80;4.23;;;;;;;;;;5032588;28;20555;-75
2022/08/16 06:53:40;;;;;;;5.53;4.30;;;;;;;;;;5033167;28;20414;-75
2022/08/16 06:56:06;;;;;;;8.63;4.93;;;;;;;;;;5033136;28;20437;-74
2022/08/16 06:58:33;;;;;;;7.00;4.20;;;;;;;;;;5033104;28;20493;-75
2022/08/16 07:01:00;;;;;;;5.27;4.70;;;;;;;;;;5032584;28;20780;-75
2022/08/16 07:03:26;;;;;;;5.03;4.20;;;;;;;;;;5033067;28;20416;-75
2022/08/16 07:05:52;;;;;;;4.87;4.37;;;;;;;;;;5033055;28;20464;-75
2022/08/16 07:08:18;;;;;;;4.77;4.00;;;;;;;;;;5032927;28;20449;-75
2022/08/16 07:10:45;;;;;;;5.03;4.17;;;;;;;;;;5032459;28;20433;-76
2022/08/16 07:13:11;;;;;;;4.60;4.03;;;;;;;;;;5032916;28;20409;-76
2022/08/16 07:15:37;;;;;;;6.77;4.80;;;;;;;;;;5032931;28;20781;-77
2022/08/16 07:18:04;;;;;;;4.17;3.87;;;;;;;;;;5015190;28;20424;-78
2022/08/16 07:20:30;;;;;;;6.43;4.20;;;;;;;;;;5032339;28;20429;-76
2022/08/16 07:22:56;;;;;;;5.17;4.37;;;;;;;;;;5032662;28;20429;-76
2022/08/16 07:25:22;;;;;;;8.93;4.73;;;;;;;;;;5032590;28;20518;-76
2022/08/16 07:27:48;;;;;;;4.80;3.90;;;;;;;;;;5032702;28;20410;-76
2022/08/16 07:30:15;;;;;;;7.43;4.87;;;;;;;;;;5032039;28;20430;-76
2022/08/16 07:32:41;;;;;;;4.77;4.13;;;;;;;;;;5032775;28;20417;-76
2022/08/16 07:35:07;;;;;;;4.47;4.07;;;;;;;;;;5032489;28;20409;-77
2022/08/16 07:37:33;;;;;;;5.77;4.03;;;;;;;;;;5036892;28;20885;-76
2022/08/16 07:39:59;;;;;;;6.47;3.63;;;;;;;;;;5036223;28;20425;-78
2022/08/16 07:42:25;;;;;;;6.17;4.50;;;;;;;;;;5036726;28;20532;-76
2022/08/16 07:44:51;;;;;;;8.07;5.03;;;;;;;;;;5036638;28;20456;-76
2022/08/16 07:47:17;;;;;;;4.67;4.33;;;;;;;;;;5036557;28;20543;-76
2022/08/16 07:49:43;;;;;;;4.60;3.90;;;;;;;;;;5036202;28;20421;-76
2022/08/16 07:52:09;;;;;;;5.97;4.37;;;;;;;;;;5036199;28;20802;-76
2022/08/16 07:54:35;;;;;;;4.77;4.37;;;;;;;;;;5036474;28;20454;-76
2022/08/16 07:57:01;;;;;;;5.03;4.20;;;;;;;;;;5036311;28;20406;-76
2022/08/16 07:59:27;;;;;;;7.10;4.57;;;;;;;;;;5036457;28;20417;-76
2022/08/16 08:01:54;;;;;;;10.00;4.80;;;;;;;;;;5036273;28;20426;-76
2022/08/16 08:04:20;;;;;;;6.30;4.20;;;;;;;;;;5036294;28;20464;-77
2022/08/16 08:06:46;;;;;;;4.47;4.07;;;;;;;;;;5036304;28;20743;-76
2022/08/16 08:09:12;;;;;;;6.33;4.67;;;;;;;;;;5035088;28;20452;-76
2022/08/16 08:11:38;;;;;;;9.17;5.50;;;;;;;;;;5035759;28;20444;-76
2022/08/16 08:14:04;;;;;;;4.57;4.17;;;;;;;;;;5036120;28;20394;-76
2022/08/16 08:16:31;;;;;;;7.17;5.17;;;;;;;;;;5022242;28;20422;-76
2022/08/16 08:18:57;;;;;;;6.93;5.10;;;;;;;;;;5016384;28;20498;-76
2022/08/16 08:21:24;;;;;;;6.70;5.17;;;;;;;;;;5015829;28;20435;-76
2022/08/16 08:23:51;;;;;;;6.27;5.33;;;;;;;;;;5016183;28;20402;-76
2022/08/16 08:26:18;;;;;;;7.93;4.60;;;;;;;;;;5015913;28;20557;-76
2022/08/16 08:28:44;;;;;;;5.33;4.30;;;;;;;;;;5029835;28;20414;-76
2022/08/16 08:31:10;;;;;;;12.60;4.33;;;;;;;;;;5035392;28;20440;-76
2022/08/16 08:33:36;;;;;;;4.90;4.40;;;;;;;;;;5035732;28;20496;-76
2022/08/16 08:36:06;;;;;;;5.73;4.43;;;;;;;;;;5035645;28;20786;-75
2022/08/16 08:38:33;;;;;;;6.90;5.33;;;;;;;;;;5035578;28;20416;-76
2022/08/16 08:40:59;;;;;;;7.93;7.13;;;;;;;;;;5035077;28;20567;-76
2022/08/16 08:43:25;;;;;;;8.67;7.50;;;;;;;;;;5035543;28;20425;-76
2022/08/16 08:45:54;;;;;;;8.03;7.33;;;;;;;;;;5035150;28;20464;-76
2022/08/16 08:48:20;;;;;;;9.40;7.40;;;;;;;;;;5024020;28;20414;-76
2022/08/16 08:50:48;;;;;;;7.40;6.20;;;;;;;;;;5014974;28;20446;-77
2022/08/16 08:53:14;;;;;;;6.93;5.60;;;;;;;;;;5015792;28;20941;-76
2022/08/16 08:55:41;;;;;;;6.73;6.03;;;;;;;;;;5015535;28;20410;-76
2022/08/16 08:58:07;;;;;;;6.90;5.70;;;;;;;;;;5015335;28;20903;-76
2022/08/16 09:00:33;;;;;;;7.40;6.20;;;;;;;;;;5015009;28;20473;-77
2022/08/16 09:03:00;;;;;;;12.80;6.00;;;;;;;;;;5015309;28;20417;-76
2022/08/16 09:05:26;;;;;;;9.70;5.93;;;;;;;;;;5015654;28;20450;-76
2022/08/16 09:07:52;;;;;;;7.53;5.50;;;;;;;;;;5015432;28;20485;-76
2022/08/16 09:10:19;;;;;;;7.73;6.30;;;;;;;;;;5014733;28;20789;-76
2022/08/16 09:12:46;;;;;;;5.53;5.03;;;;;;;;;;5013961;28;20418;-77
2022/08/16 09:15:13;;;;;;;5.53;4.83;;;;;;;;;;5015050;28;20516;-76
2022/08/16 09:17:39;;;;;;;7.60;4.83;;;;;;;;;;5015345;28;20474;-76
2022/08/16 09:20:06;;;;;;;8.07;6.10;;;;;;;;;;5014931;28;20860;-76
2022/08/16 09:22:32;;;;;;;5.93;5.43;;;;;;;;;;5015113;28;20468;-77
2022/08/16 09:24:58;;;;;;;9.13;6.73;;;;;;;;;;5014722;28;20500;-76
2022/08/16 09:27:25;;;;;;;7.70;6.37;;;;;;;;;;5014878;28;20454;-76
2022/08/16 09:29:51;;;;;;;8.93;5.63;;;;;;;;;;5014688;28;20410;-76
2022/08/16 09:32:17;;;;;;;12.50;7.47;;;;;;;;;;5014883;28;20414;-76
2022/08/16 09:34:44;;;;;;;9.30;7.60;;;;;;;;;;5014743;28;20410;-76
2022/08/16 09:37:12;;;;;;;5.80;5.20;;;;;;;;;;5016505;28;20450;-77
2022/08/16 09:39:38;;;;;;;12.00;6.50;;;;;;;;;;5034039;28;20417;-76
2022/08/16 09:42:04;;;;;;;10.23;7.17;;;;;;;;;;5034438;28;20554;-76
2022/08/16 09:44:30;;;;;;;7.93;7.20;;;;;;;;;;5034541;28;20960;-76
2022/08/16 09:46:56;;;;;;;8.90;7.00;;;;;;;;;;5034513;28;20414;-76
2022/08/16 09:49:22;;;;;;;8.10;7.30;;;;;;;;;;5028573;28;20407;-76
2022/08/16 09:51:53;;;;;;;5.60;5.10;;;;;;;;;;5014031;28;20496;-76
2022/08/16 09:54:20;;;;;;;6.30;5.17;;;;;;;;;;5014693;28;20601;-76
2022/08/16 09:56:46;;;;;;;6.80;5.73;;;;;;;;;;5028584;28;21006;-76
2022/08/16 09:59:14;;;;;;;9.93;6.20;;;;;;;;;;5033172;28;20441;-76
2022/08/16 10:01:41;;;;;;;7.40;5.43;;;;;;;;;;5033765;28;20440;-76
2022/08/16 10:04:07;;;;;;;8.70;5.40;;;;;;;;;;5041805;28;20474;-73
2022/08/16 10:06:34;;;;;;;6.80;5.90;;;;;;;;;;5037038;28;20828;-73
2022/08/16 10:09:04;;;;;;;7.20;4.30;;;;;;;;;;5037493;28;20742;-73
2022/08/16 10:14:15;;;;;;;6.33;4.73;;;;;;;;;;5051603;28;20919;-72
2022/08/16 10:16:44;;;;;;;7.70;4.20;;;;;;;;;;5030556;28;20417;-73
2022/08/16 10:19:11;;;;;;;4.80;4.00;;;;;;;;;;5033771;28;20437;-73
2022/08/16 10:21:37;;;;;;;4.13;3.60;;;;;;;;;;5040356;28;20432;-73
2022/08/16 10:24:03;;;;;;;6.33;4.43;;;;;;;;;;5035976;28;20419;-73
2022/08/16 10:26:31;;;;;;;5.60;3.90;;;;;;;;;;5053580;28;20412;-74
2022/08/16 10:28:57;;;;;;;8.23;4.40;;;;;;;;;;5053543;28;20404;-73
2022/08/16 10:31:23;;;;;;;6.40;4.00;;;;;;;;;;5052750;28;20435;-73
2022/08/16 10:33:49;;;;;;;5.60;4.20;;;;;;;;;;5053082;28;20865;-73
2022/08/16 10:36:15;;;;;;;7.97;4.40;;;;;;;;;;5035781;28;20412;-74
2022/08/16 10:38:41;;;;;;;5.90;3.70;;;;;;;;;;5053608;28;20810;-72
2022/08/16 10:41:08;;;;;;;5.80;4.13;;;;;;;;;;5038514;28;20436;-73
2022/08/16 10:43:35;;;;;;;4.83;4.33;;;;;;;;;;5015879;28;20422;-73
2022/08/16 10:46:02;;;;;;;5.30;4.53;;;;;;;;;;5017637;28;20779;-72
2022/08/16 10:48:28;;;;;;;5.47;4.27;;;;;;;;;;5033373;28;20420;-73
2022/08/16 10:50:59;;;;;;;5.87;3.67;;;;;;;;;;5032947;28;20531;-74
2022/08/16 10:53:26;;;;;;;6.67;3.87;;;;;;;;;;5032037;28;20416;-74
2022/08/16 10:55:52;;;;;;;4.27;3.50;;;;;;;;;;5033372;28;20409;-73
2022/08/16 10:58:18;;;;;;;5.93;4.33;;;;;;;;;;5028247;28;20891;-74
2022/08/16 11:00:45;;;;;;;5.93;4.33;;;;;;;;;;5016946;28;20498;-74
2022/08/16 11:03:11;;;;;;;6.57;5.03;;;;;;;;;;5033409;28;20746;-73
2022/08/16 11:05:38;;;;;;;11.17;4.13;;;;;;;;;;5033030;28;20464;-74
2022/08/16 11:08:06;;;;;;;3.83;3.37;;;;;;;;;;5033343;28;20405;-73
2022/08/16 11:10:36;;;;;;;5.37;4.40;;;;;;;;;;5032571;28;20948;-74
2022/08/16 11:13:05;;;;;;;5.90;4.47;;;;;;;;;;5033309;28;20474;-74
2022/08/16 11:15:31;;;;;;;4.27;3.73;;;;;;;;;;5033251;28;20412;-74
2022/08/16 11:17:57;;;;;;;5.93;3.77;;;;;;;;;;5033117;28;20432;-74
2022/08/16 11:20:23;;;;;;;4.40;4.00;;;;;;;;;;5032922;28;20429;-74
2022/08/16 11:22:50;;;;;;;13.17;4.47;;;;;;;;;;5033221;28;20441;-74
2022/08/16 11:25:18;;;;;;;6.40;3.50;;;;;;;;;;5033143;28;20452;-74
2022/08/16 11:27:44;;;;;;;9.40;4.23;;;;;;;;;;5033076;28;20401;-74
2022/08/16 11:30:11;;;;;;;4.73;4.13;;;;;;;;;;5032465;28;20756;-74
2022/08/16 11:32:37;;;;;;;4.67;3.50;;;;;;;;;;5033152;28;20410;-74
2022/08/16 11:35:06;;;;;;;5.33;3.97;;;;;;;;;;5033070;28;20441;-74
2022/08/16 11:37:33;;;;;;;5.67;3.80;;;;;;;;;;5033037;28;20448;-74
2022/08/16 11:39:59;;;;;;;5.20;4.00;;;;;;;;;;5032509;28;20412;-74
2022/08/16 11:42:25;;;;;;;5.20;3.30;;;;;;;;;;5032804;28;20432;-74
2022/08/16 11:44:51;;;;;;;4.13;3.40;;;;;;;;;;5033076;28;20888;-74
2022/08/16 11:47:18;;;;;;;5.67;3.37;;;;;;;;;;5033225;28;20444;-74
2022/08/16 11:49:44;;;;;;;3.17;2.83;;;;;;;;;;5032762;28;20492;-72
2022/08/16 11:52:10;;;;;;;4.40;3.63;;;;;;;;;;5032700;28;20866;-72
2022/08/16 11:54:36;;;;;;;4.53;3.73;;;;;;;;;;5033054;28;20468;-72
2022/08/16 11:57:02;;;;;;;4.60;3.63;;;;;;;;;;5032906;28;20412;-72
2022/08/16 11:59:28;;;;;;;4.00;3.03;;;;;;;;;;5032802;28;20452;-73
2022/08/16 12:01:55;;;;;;;4.40;2.97;;;;;;;;;;5014972;28;20752;-73
2022/08/16 12:04:21;;;;;;;3.67;3.20;;;;;;;;;;5032452;28;20413;-73
2022/08/16 12:06:48;;;;;;;4.80;3.30;;;;;;;;;;5032776;28;20409;-73
2022/08/16 12:09:14;;;;;;;6.63;3.10;;;;;;;;;;5032568;28;20828;-73
2022/08/16 12:11:40;;;;;;;8.13;4.13;;;;;;;;;;5032199;28;20467;-73
2022/08/16 12:14:06;;;;;;;4.43;3.40;;;;;;;;;;5032504;28;20789;-74
2022/08/16 12:16:34;;;;;;;9.67;4.03;;;;;;;;;;5032435;28;20758;-73
2022/08/16 12:19:00;;;;;;;8.10;4.27;;;;;;;;;;5032781;28;20470;-73
2022/08/16 12:21:26;;;;;;;9.47;4.70;;;;;;;;;;5032729;28;20426;-73
2022/08/16 12:23:52;;;;;;;5.90;4.90;;;;;;;;;;5036319;28;20821;-73
2022/08/16 12:26:18;;;;;;;5.13;4.10;;;;;;;;;;5018392;28;20483;-74
2022/08/16 12:28:44;;;;;;;5.00;4.17;;;;;;;;;;5036308;28;20496;-73
2022/08/16 12:31:10;;;;;;;3.67;3.30;;;;;;;;;;5036015;28;20436;-74
2022/08/16 12:33:37;;;;;;;6.63;4.07;;;;;;;;;;5036193;28;20983;-73
2022/08/16 12:36:03;;;;;;;4.40;3.67;;;;;;;;;;5036206;28;20412;-73
2022/08/16 12:38:29;;;;;;;5.60;3.67;;;;;;;;;;5035877;28;20567;-74
2022/08/16 12:40:55;;;;;;;5.53;3.33;;;;;;;;;;5035802;28;20428;-73
2022/08/16 12:43:22;;;;;;;5.90;3.60;;;;;;;;;;5036158;28;20412;-75
2022/08/16 12:45:50;;;;;;;6.17;4.03;;;;;;;;;;5036044;28;20867;-72
2022/08/16 12:51:04;;;;;;;5.60;3.40;;;;;;;;;;5035582;28;20975;-72
2022/08/16 12:53:33;;;;;;;3.50;3.17;;;;;;;;;;5035846;28;20491;-72
2022/08/16 12:55:59;;;;;;;3.87;3.40;;;;;;;;;;5035892;28;20436;-74
2022/08/16 12:58:26;;;;;;;6.27;3.60;;;;;;;;;;5035594;28;20824;-74
2022/08/16 13:00:52;;;;;;;3.57;3.13;;;;;;;;;;5035301;28;20482;-74
2022/08/16 13:03:18;;;;;;;4.93;3.17;;;;;;;;;;5035938;28;20404;-74
2022/08/16 13:05:45;;;;;;;4.13;3.47;;;;;;;;;;5035675;28;20518;-74
2022/08/16 13:08:13;;;;;;;6.83;4.03;;;;;;;;;;5035920;28;20410;-74
2022/08/16 13:10:42;;;;;;;3.23;2.93;;;;;;;;;;5035092;28;20960;-74
2022/08/16 13:13:08;;;;;;;5.30;3.43;;;;;;;;;;5035683;28;20448;-74
2022/08/16 13:15:34;;;;;;;3.97;3.60;;;;;;;;;;5035536;28;20454;-74
2022/08/16 13:18:00;;;;;;;3.77;3.40;;;;;;;;;;5035479;28;20414;-74
2022/08/16 13:20:30;;;;;;;3.63;3.30;;;;;;;;;;5034975;28;20430;-74
2022/08/16 13:23:00;;;;;;;7.63;3.90;;;;;;;;;;5035257;28;20410;-74
2022/08/16 13:25:27;;;;;;;5.10;3.53;;;;;;;;;;5035241;28;20468;-73
2022/08/16 13:27:54;;;;;;;4.63;3.70;;;;;;;;;;5035217;28;20971;-73
2022/08/16 13:30:21;;;;;;;4.13;3.80;;;;;;;;;;5034706;28;20436;-73
2022/08/16 13:32:48;;;;;;;5.53;3.57;;;;;;;;;;5034300;28;20483;-74
2022/08/16 13:35:14;;;;;;;5.60;3.50;;;;;;;;;;5034468;28;20418;-74
2022/08/16 13:37:40;;;;;;;5.50;3.83;;;;;;;;;;5035200;28;20413;-74
2022/08/16 13:40:06;;;;;;;5.07;3.70;;;;;;;;;;5034566;28;20529;-74
2022/08/16 13:42:32;;;;;;;4.60;3.67;;;;;;;;;;5034949;28;20543;-74
2022/08/16 13:44:58;;;;;;;5.17;3.83;;;;;;;;;;5034575;28;20465;-74
2022/08/16 13:47:25;;;;;;;4.00;3.53;;;;;;;;;;5034621;28;20408;-74
2022/08/16 13:49:51;;;;;;;6.90;4.23;;;;;;;;;;5034386;28;20420;-74
2022/08/16 13:52:18;;;;;;;6.40;3.93;;;;;;;;;;5034467;28;20466;-74
2022/08/16 13:54:44;;;;;;;5.07;3.63;;;;;;;;;;5035031;28;20810;-74
2022/08/16 13:57:10;;;;;;;4.13;3.50;;;;;;;;;;5034921;28;20421;-74
2022/08/16 13:59:36;;;;;;;9.93;3.53;;;;;;;;;;5034493;28;20418;-74
2022/08/16 14:02:04;;;;;;;4.77;4.30;;;;;;;;;;5034407;28;20530;-74
2022/08/16 14:04:32;;;;;;;5.70;3.70;;;;;;;;;;5034342;28;20461;-74
2022/08/16 14:06:59;;;;;;;4.87;3.87;;;;;;;;;;5034433;28;20915;-74
2022/08/16 14:09:26;;;;;;;8.90;3.73;;;;;;;;;;5034202;28;20455;-74
2022/08/16 14:11:53;;;;;;;5.43;4.00;;;;;;;;;;5034118;28;20483;-74
2022/08/16 14:14:19;;;;;;;4.30;3.77;;;;;;;;;;5034434;28;20908;-74
2022/08/16 14:16:45;;;;;;;5.50;3.00;;;;;;;;;;5034458;28;20444;-74
2022/08/16 14:19:17;;;;;;;5.07;3.30;;;;;;;;;;5034226;28;20444;-74
2022/08/16 14:21:43;;;;;;;3.40;3.10;;;;;;;;;;5034081;28;20780;-74
2022/08/16 14:24:09;;;;;;;5.67;3.40;;;;;;;;;;5034293;28;20413;-74
2022/08/16 14:26:35;;;;;;;7.87;3.33;;;;;;;;;;5034216;28;20552;-74
2022/08/16 14:29:01;;;;;;;5.70;3.60;;;;;;;;;;5034048;28;20457;-74
2022/08/16 14:31:27;;;;;;;5.83;3.43;;;;;;;;;;5015821;28;20441;-74
2022/08/16 14:33:53;;;;;;;4.73;3.37;;;;;;;;;;5033949;28;20447;-74
2022/08/16 14:36:19;;;;;;;4.60;3.47;;;;;;;;;;5033857;28;20473;-74
2022/08/16 14:38:45;;;;;;;4.50;3.50;;;;;;;;;;5033763;28;20484;-74
2022/08/16 14:41:11;;;;;;;9.87;3.33;;;;;;;;;;5015613;28;20843;-75
2022/08/16 14:43:37;;;;;;;5.03;3.60;;;;;;;;;;5033573;28;20417;-74